sensor_id;sensor_type;location;lat;lon;timestamp;temperature;humidity
66328;DHT22;53133;52.862;6.602;2023-03-14T00:01:15;11.10;99.90
66328;DHT22;53133;52.862;6.602;2023-03-14T00:03:41;11.10;99.90
66328;DHT22;53133;52.862;6.602;2023-03-14T00:06:07;11.10;99.90
66328;DHT22;53133;52.862;6.602;2023-03-14T00:08:33;11.20;99.90
66328;DHT22;53133;52.862;6.602;2023-03-14T00:11:08;11.20;99.90
66328;DHT22;53133;52.862;6.602;2023-03-14T00:13:34;11.20;99.90
66328;DHT22;53133;52.862;6.602;2023-03-14T00:16:13;11.20;99.90
66328;DHT22;53133;52.862;6.602;2023-03-14T00:18:39;11.20;99.90
66328;DHT22;53133;52.862;6.602;2023-03-14T00:21:06;11.20;99.90
66328;DHT22;53133;52.862;6.602;2023-03-14T00:23:34;11.20;99.90
66328;DHT22;53133;52.862;6.602;2023-03-14T00:26:04;11.30;99.90
66328;DHT22;53133;52.862;6.602;2023-03-14T00:28:31;11.30;99.90
66328;DHT22;53133;52.862;6.602;2023-03-14T00:30:57;11.20;99.90
66328;DHT22;53133;52.862;6.602;2023-03-14T00:33:22;11.30;99.90
66328;DHT22;53133;52.862;6.602;2023-03-14T00:35:56;11.30;99.90
66328;DHT22;53133;52.862;6.602;2023-03-14T00:38:22;11.30;99.90
66328;DHT22;53133;52.862;6.602;2023-03-14T00:40:50;11.30;99.90
66328;DHT22;53133;52.862;6.602;2023-03-14T00:43:15;11.30;99.90
66328;DHT22;53133;52.862;6.602;2023-03-14T00:45:41;11.30;99.90
66328;DHT22;53133;52.862;6.602;2023-03-14T00:48:06;11.30;99.90
66328;DHT22;53133;52.862;6.602;2023-03-14T00:50:32;11.30;99.90
66328;DHT22;53133;52.862;6.602;2023-03-14T00:52:58;11.30;99.90
66328;DHT22;53133;52.862;6.602;2023-03-14T00:55:24;11.30;99.90
66328;DHT22;53133;52.862;6.602;2023-03-14T00:57:50;11.40;99.90
66328;DHT22;53133;52.862;6.602;2023-03-14T01:00:16;11.30;99.90
66328;DHT22;53133;52.862;6.602;2023-03-14T01:02:42;11.30;99.90
66328;DHT22;53133;52.862;6.602;2023-03-14T01:05:08;11.30;99.90
66328;DHT22;53133;52.862;6.602;2023-03-14T01:07:36;11.30;99.90
66328;DHT22;53133;52.862;6.602;2023-03-14T01:10:01;11.30;99.90
66328;DHT22;53133;52.862;6.602;2023-03-14T01:12:27;11.30;99.90
66328;DHT22;53133;52.862;6.602;2023-03-14T01:14:53;11.30;99.90
66328;DHT22;53133;52.862;6.602;2023-03-14T01:17:19;11.30;99.90
66328;DHT22;53133;52.862;6.602;2023-03-14T01:19:44;11.30;99.90
66328;DHT22;53133;52.862;6.602;2023-03-14T01:22:10;11.20;99.90
66328;DHT22;53133;52.862;6.602;2023-03-14T01:24:37;11.20;99.90
66328;DHT22;53133;52.862;6.602;2023-03-14T01:27:02;11.20;99.90
66328;DHT22;53133;52.862;6.602;2023-03-14T01:29:28;11.20;99.90
66328;DHT22;53133;52.862;6.602;2023-03-14T01:31:53;11.20;99.90
66328;DHT22;53133;52.862;6.602;2023-03-14T01:34:19;11.20;99.90
66328;DHT22;53133;52.862;6.602;2023-03-14T01:36:44;11.20;99.90
66328;DHT22;53133;52.862;6.602;2023-03-14T01:39:10;11.20;99.90
66328;DHT22;53133;52.862;6.602;2023-03-14T01:41:36;11.20;99.90
66328;DHT22;53133;52.862;6.602;2023-03-14T01:44:02;11.20;99.90
66328;DHT22;53133;52.862;6.602;2023-03-14T01:46:39;11.20;99.90
66328;DHT22;53133;52.862;6.602;2023-03-14T01:49:18;11.20;99.90
66328;DHT22;53133;52.862;6.602;2023-03-14T01:52:02;11.20;99.90
66328;DHT22;53133;52.862;6.602;2023-03-14T01:54:33;11.20;99.90
66328;DHT22;53133;52.862;6.602;2023-03-14T01:57:32;11.10;99.90
66328;DHT22;53133;52.862;6.602;2023-03-14T02:00:03;11.20;99.90
66328;DHT22;53133;52.862;6.602;2023-03-14T02:02:35;11.10;99.90
66328;DHT22;53133;52.862;6.602;2023-03-14T02:05:02;11.10;99.90
66328;DHT22;53133;52.862;6.602;2023-03-14T02:07:39;11.10;99.90
66328;DHT22;53133;52.862;6.602;2023-03-14T02:10:06;11.10;99.90
66328;DHT22;53133;52.862;6.602;2023-03-14T02:12:33;11.10;99.90
66328;DHT22;53133;52.862;6.602;2023-03-14T02:15:00;11.10;99.90
66328;DHT22;53133;52.862;6.602;2023-03-14T02:17:25;11.10;99.90
66328;DHT22;53133;52.862;6.602;2023-03-14T02:20:07;11.10;99.90
66328;DHT22;53133;52.862;6.602;2023-03-14T02:22:35;11.00;99.90
66328;DHT22;53133;52.862;6.602;2023-03-14T02:25:11;11.00;99.90
66328;DHT22;53133;52.862;6.602;2023-03-14T02:27:38;11.00;99.90
66328;DHT22;53133;52.862;6.602;2023-03-14T02:30:11;11.00;99.90
66328;DHT22;53133;52.862;6.602;2023-03-14T02:32:39;11.00;99.90
66328;DHT22;53133;52.862;6.602;2023-03-14T02:35:09;11.10;99.90
66328;DHT22;53133;52.862;6.602;2023-03-14T02:40:20;11.00;99.90
66328;DHT22;53133;52.862;6.602;2023-03-14T02:42:45;11.00;99.90
66328;DHT22;53133;52.862;6.602;2023-03-14T02:47:39;11.00;99.90
66328;DHT22;53133;52.862;6.602;2023-03-14T02:50:14;11.00;99.90
66328;DHT22;53133;52.862;6.602;2023-03-14T02:52:41;11.00;99.90
66328;DHT22;53133;52.862;6.602;2023-03-14T02:55:07;10.90;99.90
66328;DHT22;53133;52.862;6.602;2023-03-14T02:57:32;10.90;99.90
66328;DHT22;53133;52.862;6.602;2023-03-14T02:59:59;10.90;99.90
66328;DHT22;53133;52.862;6.602;2023-03-14T03:02:25;10.90;99.90
66328;DHT22;53133;52.862;6.602;2023-03-14T03:04:51;10.90;99.90
66328;DHT22;53133;52.862;6.602;2023-03-14T03:07:17;10.90;99.90
66328;DHT22;53133;52.862;6.602;2023-03-14T03:09:42;10.90;99.90
66328;DHT22;53133;52.862;6.602;2023-03-14T03:12:08;10.80;99.90
66328;DHT22;53133;52.862;6.602;2023-03-14T03:14:33;10.90;99.90
66328;DHT22;53133;52.862;6.602;2023-03-14T03:16:59;10.80;99.90
66328;DHT22;53133;52.862;6.602;2023-03-14T03:19:25;10.90;99.90
66328;DHT22;53133;52.862;6.602;2023-03-14T03:21:50;10.80;99.90
66328;DHT22;53133;52.862;6.602;2023-03-14T03:24:16;10.80;99.90
66328;DHT22;53133;52.862;6.602;2023-03-14T03:26:41;10.80;99.90
66328;DHT22;53133;52.862;6.602;2023-03-14T03:29:07;10.80;99.90
66328;DHT22;53133;52.862;6.602;2023-03-14T03:31:32;10.80;99.90
66328;DHT22;53133;52.862;6.602;2023-03-14T03:33:58;10.70;99.90
66328;DHT22;53133;52.862;6.602;2023-03-14T03:36:25;10.80;99.90
66328;DHT22;53133;52.862;6.602;2023-03-14T03:38:51;10.70;99.90
66328;DHT22;53133;52.862;6.602;2023-03-14T03:41:17;10.70;99.90
66328;DHT22;53133;52.862;6.602;2023-03-14T03:43:42;10.70;99.90
66328;DHT22;53133;52.862;6.602;2023-03-14T03:46:08;10.70;99.90
66328;DHT22;53133;52.862;6.602;2023-03-14T03:48:35;10.70;99.90
66328;DHT22;53133;52.862;6.602;2023-03-14T03:51:01;10.70;99.90
66328;DHT22;53133;52.862;6.602;2023-03-14T03:53:27;10.70;99.90
66328;DHT22;53133;52.862;6.602;2023-03-14T03:55:53;10.70;99.90
66328;DHT22;53133;52.862;6.602;2023-03-14T03:58:18;10.70;99.90
66328;DHT22;53133;52.862;6.602;2023-03-14T04:00:44;10.70;99.90
66328;DHT22;53133;52.862;6.602;2023-03-14T04:03:10;10.70;99.90
66328;DHT22;53133;52.862;6.602;2023-03-14T04:05:36;10.60;99.90
66328;DHT22;53133;52.862;6.602;2023-03-14T04:08:02;10.60;99.90
66328;DHT22;53133;52.862;6.602;2023-03-14T04:10:28;10.60;99.90
66328;DHT22;53133;52.862;6.602;2023-03-14T04:12:54;10.60;99.90
66328;DHT22;53133;52.862;6.602;2023-03-14T04:15:20;10.60;99.90
66328;DHT22;53133;52.862;6.602;2023-03-14T04:17:45;10.60;99.90
66328;DHT22;53133;52.862;6.602;2023-03-14T04:20:11;10.60;99.90
66328;DHT22;53133;52.862;6.602;2023-03-14T04:22:38;10.60;99.90
66328;DHT22;53133;52.862;6.602;2023-03-14T04:25:04;10.60;99.90
66328;DHT22;53133;52.862;6.602;2023-03-14T04:27:30;10.60;99.90
66328;DHT22;53133;52.862;6.602;2023-03-14T04:29:55;10.60;99.90
66328;DHT22;53133;52.862;6.602;2023-03-14T04:32:21;10.50;99.90
66328;DHT22;53133;52.862;6.602;2023-03-14T04:34:47;10.50;99.90
66328;DHT22;53133;52.862;6.602;2023-03-14T04:37:12;10.50;99.90
66328;DHT22;53133;52.862;6.602;2023-03-14T04:39:38;10.50;99.90
66328;DHT22;53133;52.862;6.602;2023-03-14T04:42:03;10.50;99.90
66328;DHT22;53133;52.862;6.602;2023-03-14T04:44:29;10.50;99.90
66328;DHT22;53133;52.862;6.602;2023-03-14T04:46:55;10.50;99.90
66328;DHT22;53133;52.862;6.602;2023-03-14T04:49:20;10.50;99.90
66328;DHT22;53133;52.862;6.602;2023-03-14T04:51:46;10.40;99.90
66328;DHT22;53133;52.862;6.602;2023-03-14T04:54:12;10.40;99.90
66328;DHT22;53133;52.862;6.602;2023-03-14T04:56:37;10.40;99.90
66328;DHT22;53133;52.862;6.602;2023-03-14T04:59:03;10.40;99.90
66328;DHT22;53133;52.862;6.602;2023-03-14T05:01:29;10.40;99.90
66328;DHT22;53133;52.862;6.602;2023-03-14T05:03:55;10.40;99.90
66328;DHT22;53133;52.862;6.602;2023-03-14T05:06:20;10.30;99.90
66328;DHT22;53133;52.862;6.602;2023-03-14T05:08:46;10.40;99.90
66328;DHT22;53133;52.862;6.602;2023-03-14T05:11:12;10.30;99.90
66328;DHT22;53133;52.862;6.602;2023-03-14T05:13:38;10.30;99.90
66328;DHT22;53133;52.862;6.602;2023-03-14T05:16:06;10.30;99.90
66328;DHT22;53133;52.862;6.602;2023-03-14T05:18:32;10.30;99.90
66328;DHT22;53133;52.862;6.602;2023-03-14T05:20:58;10.30;99.90
66328;DHT22;53133;52.862;6.602;2023-03-14T05:23:23;10.30;99.90
66328;DHT22;53133;52.862;6.602;2023-03-14T05:25:49;10.40;99.90
66328;DHT22;53133;52.862;6.602;2023-03-14T05:28:14;10.30;99.90
66328;DHT22;53133;52.862;6.602;2023-03-14T05:30:40;10.40;99.90
66328;DHT22;53133;52.862;6.602;2023-03-14T05:33:05;10.40;99.90
66328;DHT22;53133;52.862;6.602;2023-03-14T05:35:31;10.40;99.90
66328;DHT22;53133;52.862;6.602;2023-03-14T05:37:57;10.40;99.90
66328;DHT22;53133;52.862;6.602;2023-03-14T05:40:22;10.40;99.90
66328;DHT22;53133;52.862;6.602;2023-03-14T05:42:48;10.40;99.90
66328;DHT22;53133;52.862;6.602;2023-03-14T05:45:13;10.40;99.90
66328;DHT22;53133;52.862;6.602;2023-03-14T05:47:39;10.40;99.90
66328;DHT22;53133;52.862;6.602;2023-03-14T05:50:05;10.30;99.90
66328;DHT22;53133;52.862;6.602;2023-03-14T05:52:30;10.30;99.90
66328;DHT22;53133;52.862;6.602;2023-03-14T05:54:56;10.30;99.90
66328;DHT22;53133;52.862;6.602;2023-03-14T05:57:21;10.30;99.90
66328;DHT22;53133;52.862;6.602;2023-03-14T05:59:47;10.20;99.90
66328;DHT22;53133;52.862;6.602;2023-03-14T06:02:13;10.20;99.90
66328;DHT22;53133;52.862;6.602;2023-03-14T06:04:38;10.20;99.90
66328;DHT22;53133;52.862;6.602;2023-03-14T06:07:04;10.20;99.90
66328;DHT22;53133;52.862;6.602;2023-03-14T06:09:29;10.10;99.90
66328;DHT22;53133;52.862;6.602;2023-03-14T06:11:55;10.10;99.90
66328;DHT22;53133;52.862;6.602;2023-03-14T06:14:21;10.10;99.90
66328;DHT22;53133;52.862;6.602;2023-03-14T06:16:46;10.10;99.90
66328;DHT22;53133;52.862;6.602;2023-03-14T06:19:14;10.10;99.90
66328;DHT22;53133;52.862;6.602;2023-03-14T06:21:40;10.10;99.90
66328;DHT22;53133;52.862;6.602;2023-03-14T06:24:06;10.10;99.90
66328;DHT22;53133;52.862;6.602;2023-03-14T06:26:32;10.10;99.90
66328;DHT22;53133;52.862;6.602;2023-03-14T06:28:58;10.10;99.90
66328;DHT22;53133;52.862;6.602;2023-03-14T06:31:29;10.00;99.90
66328;DHT22;53133;52.862;6.602;2023-03-14T06:33:54;10.00;99.90
66328;DHT22;53133;52.862;6.602;2023-03-14T06:36:20;10.00;99.90
66328;DHT22;53133;52.862;6.602;2023-03-14T06:38:45;10.00;99.90
66328;DHT22;53133;52.862;6.602;2023-03-14T06:41:11;10.00;99.90
66328;DHT22;53133;52.862;6.602;2023-03-14T06:43:37;10.00;99.90
66328;DHT22;53133;52.862;6.602;2023-03-14T06:46:02;10.00;99.90
66328;DHT22;53133;52.862;6.602;2023-03-14T06:48:28;10.00;99.90
66328;DHT22;53133;52.862;6.602;2023-03-14T06:50:53;10.00;99.90
66328;DHT22;53133;52.862;6.602;2023-03-14T06:53:19;10.00;99.90
66328;DHT22;53133;52.862;6.602;2023-03-14T06:55:45;10.00;99.90
66328;DHT22;53133;52.862;6.602;2023-03-14T06:58:11;10.00;99.90
66328;DHT22;53133;52.862;6.602;2023-03-14T07:00:36;10.00;99.90
66328;DHT22;53133;52.862;6.602;2023-03-14T07:03:02;10.00;99.90
66328;DHT22;53133;52.862;6.602;2023-03-14T07:05:28;10.00;99.90
66328;DHT22;53133;52.862;6.602;2023-03-14T07:07:54;10.00;99.90
66328;DHT22;53133;52.862;6.602;2023-03-14T07:10:20;10.00;99.90
66328;DHT22;53133;52.862;6.602;2023-03-14T07:12:45;9.90;99.90
66328;DHT22;53133;52.862;6.602;2023-03-14T07:15:11;10.00;99.90
66328;DHT22;53133;52.862;6.602;2023-03-14T07:17:37;9.90;99.90
66328;DHT22;53133;52.862;6.602;2023-03-14T07:20:03;9.90;99.90
66328;DHT22;53133;52.862;6.602;2023-03-14T07:22:30;9.80;99.90
66328;DHT22;53133;52.862;6.602;2023-03-14T07:24:56;9.70;99.90
66328;DHT22;53133;52.862;6.602;2023-03-14T07:27:21;9.70;99.90
66328;DHT22;53133;52.862;6.602;2023-03-14T07:29:47;9.60;99.90
66328;DHT22;53133;52.862;6.602;2023-03-14T07:32:12;9.50;99.90
66328;DHT22;53133;52.862;6.602;2023-03-14T07:34:41;9.30;99.90
66328;DHT22;53133;52.862;6.602;2023-03-14T07:37:07;9.00;99.90
66328;DHT22;53133;52.862;6.602;2023-03-14T07:39:33;8.70;99.90
66328;DHT22;53133;52.862;6.602;2023-03-14T07:41:58;8.40;99.90
66328;DHT22;53133;52.862;6.602;2023-03-14T07:44:24;8.20;99.90
66328;DHT22;53133;52.862;6.602;2023-03-14T07:46:49;7.90;99.90
66328;DHT22;53133;52.862;6.602;2023-03-14T07:49:15;7.70;99.90
66328;DHT22;53133;52.862;6.602;2023-03-14T07:51:41;7.50;99.90
66328;DHT22;53133;52.862;6.602;2023-03-14T07:54:06;7.30;99.90
66328;DHT22;53133;52.862;6.602;2023-03-14T07:56:33;7.10;99.90
66328;DHT22;53133;52.862;6.602;2023-03-14T07:58:58;6.90;99.90
66328;DHT22;53133;52.862;6.602;2023-03-14T08:01:24;6.70;99.90
66328;DHT22;53133;52.862;6.602;2023-03-14T08:03:50;6.40;99.90
66328;DHT22;53133;52.862;6.602;2023-03-14T08:06:15;6.30;99.90
66328;DHT22;53133;52.862;6.602;2023-03-14T08:08:41;6.10;99.90
66328;DHT22;53133;52.862;6.602;2023-03-14T08:11:07;5.90;99.90
66328;DHT22;53133;52.862;6.602;2023-03-14T08:13:37;5.80;99.90
66328;DHT22;53133;52.862;6.602;2023-03-14T08:16:03;5.70;99.90
66328;DHT22;53133;52.862;6.602;2023-03-14T08:18:29;5.60;99.90
66328;DHT22;53133;52.862;6.602;2023-03-14T08:20:55;5.50;99.90
66328;DHT22;53133;52.862;6.602;2023-03-14T08:23:21;5.50;99.90
66328;DHT22;53133;52.862;6.602;2023-03-14T08:25:50;5.50;99.90
66328;DHT22;53133;52.862;6.602;2023-03-14T08:28:16;5.50;99.90
66328;DHT22;53133;52.862;6.602;2023-03-14T08:30:41;5.50;99.90
66328;DHT22;53133;52.862;6.602;2023-03-14T08:33:07;5.50;99.90
66328;DHT22;53133;52.862;6.602;2023-03-14T08:35:33;5.60;99.90
66328;DHT22;53133;52.862;6.602;2023-03-14T08:37:58;5.60;99.90
66328;DHT22;53133;52.862;6.602;2023-03-14T08:40:24;5.60;99.90
66328;DHT22;53133;52.862;6.602;2023-03-14T08:42:50;5.60;99.90
66328;DHT22;53133;52.862;6.602;2023-03-14T08:45:16;5.50;99.90
66328;DHT22;53133;52.862;6.602;2023-03-14T08:47:43;5.50;99.90
66328;DHT22;53133;52.862;6.602;2023-03-14T08:50:09;5.50;99.90
66328;DHT22;53133;52.862;6.602;2023-03-14T08:52:35;5.50;99.90
66328;DHT22;53133;52.862;6.602;2023-03-14T08:55:03;5.50;99.90
66328;DHT22;53133;52.862;6.602;2023-03-14T08:57:30;5.50;99.90
66328;DHT22;53133;52.862;6.602;2023-03-14T08:59:56;5.50;99.90
66328;DHT22;53133;52.862;6.602;2023-03-14T09:02:23;5.50;99.90
66328;DHT22;53133;52.862;6.602;2023-03-14T09:04:50;5.50;99.90
66328;DHT22;53133;52.862;6.602;2023-03-14T09:07:16;5.60;99.90
66328;DHT22;53133;52.862;6.602;2023-03-14T09:09:42;5.60;99.90
66328;DHT22;53133;52.862;6.602;2023-03-14T09:12:07;5.60;99.90
66328;DHT22;53133;52.862;6.602;2023-03-14T09:14:33;5.60;99.90
66328;DHT22;53133;52.862;6.602;2023-03-14T09:16:59;5.70;99.90
66328;DHT22;53133;52.862;6.602;2023-03-14T09:19:24;5.60;99.90
66328;DHT22;53133;52.862;6.602;2023-03-14T09:21:50;5.70;99.90
66328;DHT22;53133;52.862;6.602;2023-03-14T09:24:16;5.70;99.90
66328;DHT22;53133;52.862;6.602;2023-03-14T09:26:42;5.70;99.90
66328;DHT22;53133;52.862;6.602;2023-03-14T09:29:08;5.70;99.90
66328;DHT22;53133;52.862;6.602;2023-03-14T09:31:34;5.80;99.90
66328;DHT22;53133;52.862;6.602;2023-03-14T09:34:00;5.80;99.90
66328;DHT22;53133;52.862;6.602;2023-03-14T09:36:26;5.90;99.90
66328;DHT22;53133;52.862;6.602;2023-03-14T09:38:51;6.00;99.90
66328;DHT22;53133;52.862;6.602;2023-03-14T09:41:33;6.20;99.90
66328;DHT22;53133;52.862;6.602;2023-03-14T09:44:03;6.20;99.90
66328;DHT22;53133;52.862;6.602;2023-03-14T09:46:31;6.20;99.90
66328;DHT22;53133;52.862;6.602;2023-03-14T09:48:58;6.20;99.90
66328;DHT22;53133;52.862;6.602;2023-03-14T09:51:24;6.30;99.90
66328;DHT22;53133;52.862;6.602;2023-03-14T09:53:51;6.30;99.90
66328;DHT22;53133;52.862;6.602;2023-03-14T09:56:24;6.30;99.90
66328;DHT22;53133;52.862;6.602;2023-03-14T09:58:56;6.30;99.90
66328;DHT22;53133;52.862;6.602;2023-03-14T10:01:28;6.40;99.90
66328;DHT22;53133;52.862;6.602;2023-03-14T10:03:57;6.40;99.90
66328;DHT22;53133;52.862;6.602;2023-03-14T10:06:26;6.40;99.90
66328;DHT22;53133;52.862;6.602;2023-03-14T10:08:52;6.40;99.90
66328;DHT22;53133;52.862;6.602;2023-03-14T10:11:19;6.30;99.90
66328;DHT22;53133;52.862;6.602;2023-03-14T10:16:43;6.40;99.90
66328;DHT22;53133;52.862;6.602;2023-03-14T10:19:11;6.40;99.90
66328;DHT22;53133;52.862;6.602;2023-03-14T10:24:09;6.40;99.90
66328;DHT22;53133;52.862;6.602;2023-03-14T10:26:36;6.40;99.90
66328;DHT22;53133;52.862;6.602;2023-03-14T10:29:08;6.40;99.90
66328;DHT22;53133;52.862;6.602;2023-03-14T10:31:56;6.40;99.90
66328;DHT22;53133;52.862;6.602;2023-03-14T10:34:34;6.40;99.90
66328;DHT22;53133;52.862;6.602;2023-03-14T10:37:23;6.30;99.90
66328;DHT22;53133;52.862;6.602;2023-03-14T10:39:53;6.20;99.90
66328;DHT22;53133;52.862;6.602;2023-03-14T10:42:25;6.10;99.90
66328;DHT22;53133;52.862;6.602;2023-03-14T10:47:49;6.20;99.90
66328;DHT22;53133;52.862;6.602;2023-03-14T10:52:52;6.30;99.90
66328;DHT22;53133;52.862;6.602;2023-03-14T10:55:18;6.30;99.90
66328;DHT22;53133;52.862;6.602;2023-03-14T10:57:44;6.30;99.90
66328;DHT22;53133;52.862;6.602;2023-03-14T11:00:21;6.40;99.90
66328;DHT22;53133;52.862;6.602;2023-03-14T11:03:10;6.40;99.90
66328;DHT22;53133;52.862;6.602;2023-03-14T11:05:56;6.50;99.90
66328;DHT22;53133;52.862;6.602;2023-03-14T11:08:37;6.60;99.90
66328;DHT22;53133;52.862;6.602;2023-03-14T11:25:27;6.60;99.90
66328;DHT22;53133;52.862;6.602;2023-03-14T11:30:51;6.60;99.90
66328;DHT22;53133;52.862;6.602;2023-03-14T11:33:38;6.50;99.90
66328;DHT22;53133;52.862;6.602;2023-03-14T11:36:09;6.50;99.90
66328;DHT22;53133;52.862;6.602;2023-03-14T11:38:49;6.50;99.90
66328;DHT22;53133;52.862;6.602;2023-03-14T11:41:33;6.50;99.90
66328;DHT22;53133;52.862;6.602;2023-03-14T11:44:04;6.60;99.90
66328;DHT22;53133;52.862;6.602;2023-03-14T11:46:41;6.60;99.90
66328;DHT22;53133;52.862;6.602;2023-03-14T11:49:25;6.80;99.90
66328;DHT22;53133;52.862;6.602;2023-03-14T11:51:57;6.90;99.90
66328;DHT22;53133;52.862;6.602;2023-03-14T11:54:28;6.90;99.90
66328;DHT22;53133;52.862;6.602;2023-03-14T11:57:01;6.90;99.90
66328;DHT22;53133;52.862;6.602;2023-03-14T11:59:50;6.80;99.90
66328;DHT22;53133;52.862;6.602;2023-03-14T12:02:24;6.70;99.90
66328;DHT22;53133;52.862;6.602;2023-03-14T12:05:30;6.70;99.90
66328;DHT22;53133;52.862;6.602;2023-03-14T12:10:53;6.80;99.90
66328;DHT22;53133;52.862;6.602;2023-03-14T12:13:20;6.90;99.90
66328;DHT22;53133;52.862;6.602;2023-03-14T12:15:54;7.00;99.90
66328;DHT22;53133;52.862;6.602;2023-03-14T12:18:26;7.00;96.80
66328;DHT22;53133;52.862;6.602;2023-03-14T12:20:56;7.00;99.90
66328;DHT22;53133;52.862;6.602;2023-03-14T12:23:22;7.00;99.90
66328;DHT22;53133;52.862;6.602;2023-03-14T12:26:15;7.00;99.90
66328;DHT22;53133;52.862;6.602;2023-03-14T12:29:29;6.90;98.90
66328;DHT22;53133;52.862;6.602;2023-03-14T12:31:43;6.80;99.90
66328;DHT22;53133;52.862;6.602;2023-03-14T12:42:07;7.00;88.10
66328;DHT22;53133;52.862;6.602;2023-03-14T12:44:39;7.10;96.10
66328;DHT22;53133;52.862;6.602;2023-03-14T12:49:44;7.30;92.50
66328;DHT22;53133;52.862;6.602;2023-03-14T12:52:15;7.30;98.10
66328;DHT22;53133;52.862;6.602;2023-03-14T12:55:05;7.30;89.90
66328;DHT22;53133;52.862;6.602;2023-03-14T12:57:45;7.20;97.10
66328;DHT22;53133;52.862;6.602;2023-03-14T13:00:21;7.20;92.20
66328;DHT22;53133;52.862;6.602;2023-03-14T13:02:49;7.30;94.70
66328;DHT22;53133;52.862;6.602;2023-03-14T13:05:19;7.30;97.60
66328;DHT22;53133;52.862;6.602;2023-03-14T13:10:24;7.50;98.20
66328;DHT22;53133;52.862;6.602;2023-03-14T13:13:15;7.60;91.90
66328;DHT22;53133;52.862;6.602;2023-03-14T13:15:44;7.70;98.20
66328;DHT22;53133;52.862;6.602;2023-03-14T13:18:23;7.80;97.90
66328;DHT22;53133;52.862;6.602;2023-03-14T13:20:54;7.90;99.60
66328;DHT22;53133;52.862;6.602;2023-03-14T13:23:29;7.90;91.40
66328;DHT22;53133;52.862;6.602;2023-03-14T13:25:56;7.80;83.10
66328;DHT22;53133;52.862;6.602;2023-03-14T13:28:22;7.80;93.00
66328;DHT22;53133;52.862;6.602;2023-03-14T13:30:49;7.90;91.10
66328;DHT22;53133;52.862;6.602;2023-03-14T13:33:21;8.00;84.50
66328;DHT22;53133;52.862;6.602;2023-03-14T13:36:00;8.00;84.60
66328;DHT22;53133;52.862;6.602;2023-03-14T13:38:30;7.90;84.90
66328;DHT22;53133;52.862;6.602;2023-03-14T13:40:58;7.80;79.80
66328;DHT22;53133;52.862;6.602;2023-03-14T13:43:33;7.70;90.30
66328;DHT22;53133;52.862;6.602;2023-03-14T13:46:03;7.70;80.80
66328;DHT22;53133;52.862;6.602;2023-03-14T13:48:31;7.60;70.10
66328;DHT22;53133;52.862;6.602;2023-03-14T13:51:06;7.60;79.80
66328;DHT22;53133;52.862;6.602;2023-03-14T13:56:15;7.70;72.00
66328;DHT22;53133;52.862;6.602;2023-03-14T13:58:41;7.80;74.70
66328;DHT22;53133;52.862;6.602;2023-03-14T14:03:48;7.70;68.90
66328;DHT22;53133;52.862;6.602;2023-03-14T14:08:53;7.60;73.90
66328;DHT22;53133;52.862;6.602;2023-03-14T14:11:43;7.60;78.30
66328;DHT22;53133;52.862;6.602;2023-03-14T14:14:26;7.60;86.40
66328;DHT22;53133;52.862;6.602;2023-03-14T14:16:53;7.70;76.00
66328;DHT22;53133;52.862;6.602;2023-03-14T14:19:22;7.80;80.40
66328;DHT22;53133;52.862;6.602;2023-03-14T14:21:49;7.90;77.80
66328;DHT22;53133;52.862;6.602;2023-03-14T14:24:15;8.00;78.40
66328;DHT22;53133;52.862;6.602;2023-03-14T14:26:48;8.10;83.60
66328;DHT22;53133;52.862;6.602;2023-03-14T14:29:30;8.20;79.60
66328;DHT22;53133;52.862;6.602;2023-03-14T14:32:14;8.30;72.00
66328;DHT22;53133;52.862;6.602;2023-03-14T14:34:44;8.30;72.70
66328;DHT22;53133;52.862;6.602;2023-03-14T14:37:20;8.30;80.30
66328;DHT22;53133;52.862;6.602;2023-03-14T14:39:46;8.20;78.50
66328;DHT22;53133;52.862;6.602;2023-03-14T14:42:17;8.20;82.40
66328;DHT22;53133;52.862;6.602;2023-03-14T14:44:44;8.10;67.40
66328;DHT22;53133;52.862;6.602;2023-03-14T14:47:15;8.00;80.40
66328;DHT22;53133;52.862;6.602;2023-03-14T14:49:41;8.00;82.30
66328;DHT22;53133;52.862;6.602;2023-03-14T14:52:14;7.90;84.40
66328;DHT22;53133;52.862;6.602;2023-03-14T14:54:51;8.00;84.30
66328;DHT22;53133;52.862;6.602;2023-03-14T14:57:23;7.90;69.90
66328;DHT22;53133;52.862;6.602;2023-03-14T14:59:50;8.00;75.20
66328;DHT22;53133;52.862;6.602;2023-03-14T15:02:32;8.00;89.20
66328;DHT22;53133;52.862;6.602;2023-03-14T15:05:00;8.10;74.80
66328;DHT22;53133;52.862;6.602;2023-03-14T15:07:26;8.00;87.00
66328;DHT22;53133;52.862;6.602;2023-03-14T15:09:51;7.90;84.30
66328;DHT22;53133;52.862;6.602;2023-03-14T15:12:17;7.80;88.30
66328;DHT22;53133;52.862;6.602;2023-03-14T15:14:43;7.80;90.30
66328;DHT22;53133;52.862;6.602;2023-03-14T15:17:11;7.80;90.00
66328;DHT22;53133;52.862;6.602;2023-03-14T15:19:38;7.70;89.40
66328;DHT22;53133;52.862;6.602;2023-03-14T15:22:08;7.80;87.20
66328;DHT22;53133;52.862;6.602;2023-03-14T15:24:35;7.90;86.00
66328;DHT22;53133;52.862;6.602;2023-03-14T15:27:00;8.00;84.40
66328;DHT22;53133;52.862;6.602;2023-03-14T15:29:26;8.00;79.10
66328;DHT22;53133;52.862;6.602;2023-03-14T15:31:52;8.00;77.70
66328;DHT22;53133;52.862;6.602;2023-03-14T15:34:17;8.10;79.00
66328;DHT22;53133;52.862;6.602;2023-03-14T15:36:43;8.10;79.50
66328;DHT22;53133;52.862;6.602;2023-03-14T15:39:10;8.10;73.50
66328;DHT22;53133;52.862;6.602;2023-03-14T15:41:36;8.00;70.00
66328;DHT22;53133;52.862;6.602;2023-03-14T15:44:01;8.00;73.60
66328;DHT22;53133;52.862;6.602;2023-03-14T15:46:27;7.90;67.10
66328;DHT22;53133;52.862;6.602;2023-03-14T15:48:53;7.90;72.20
66328;DHT22;53133;52.862;6.602;2023-03-14T15:51:19;7.80;72.60
66328;DHT22;53133;52.862;6.602;2023-03-14T15:53:44;7.80;77.80
66328;DHT22;53133;52.862;6.602;2023-03-14T15:56:15;7.80;82.80
66328;DHT22;53133;52.862;6.602;2023-03-14T15:58:42;7.80;89.50
66328;DHT22;53133;52.862;6.602;2023-03-14T16:01:12;7.80;91.90
66328;DHT22;53133;52.862;6.602;2023-03-14T16:03:38;7.80;94.30
66328;DHT22;53133;52.862;6.602;2023-03-14T16:06:04;7.70;94.90
66328;DHT22;53133;52.862;6.602;2023-03-14T16:08:30;7.60;93.60
66328;DHT22;53133;52.862;6.602;2023-03-14T16:10:58;7.60;95.00
66328;DHT22;53133;52.862;6.602;2023-03-14T16:13:24;7.50;93.60
66328;DHT22;53133;52.862;6.602;2023-03-14T16:15:58;7.40;95.00
66328;DHT22;53133;52.862;6.602;2023-03-14T16:18:26;7.40;95.90
66328;DHT22;53133;52.862;6.602;2023-03-14T16:20:54;7.40;96.90
66328;DHT22;53133;52.862;6.602;2023-03-14T16:23:19;7.30;96.30
66328;DHT22;53133;52.862;6.602;2023-03-14T16:25:45;7.30;97.70
66328;DHT22;53133;52.862;6.602;2023-03-14T16:28:11;7.40;97.90
66328;DHT22;53133;52.862;6.602;2023-03-14T16:30:36;7.40;98.00
66328;DHT22;53133;52.862;6.602;2023-03-14T16:33:02;7.30;97.70
66328;DHT22;53133;52.862;6.602;2023-03-14T16:35:28;7.20;98.80
66328;DHT22;53133;52.862;6.602;2023-03-14T16:37:53;7.10;99.90
66328;DHT22;53133;52.862;6.602;2023-03-14T16:40:19;6.80;99.90
66328;DHT22;53133;52.862;6.602;2023-03-14T16:42:44;6.50;99.90
66328;DHT22;53133;52.862;6.602;2023-03-14T16:45:10;6.50;99.90